createdAt,value
2023-01-30T00:01:19.941Z,98121.69
2023-01-30T00:03:47.723Z,98116.91
2023-01-30T00:06:16.302Z,98114.81
2023-01-30T00:08:43.906Z,98097.16
2023-01-30T00:11:14.524Z,98093.59
2023-01-30T00:13:43.809Z,98094.44
2023-01-30T00:16:12.521Z,98087.94
2023-01-30T00:18:41.962Z,98082.38
2023-01-30T00:21:14.304Z,98073.94
2023-01-30T00:23:42.627Z,98065.41
2023-01-30T00:26:11.962Z,98065.56
2023-01-30T00:28:40.184Z,98070.88
2023-01-30T00:31:08.643Z,98055.63
2023-01-30T00:33:38.875Z,98038.50
2023-01-30T00:36:07.327Z,98034.59
2023-01-30T00:38:34.731Z,98029.34
2023-01-30T00:41:02.715Z,98039.72
2023-01-30T00:43:48.863Z,98047.13
2023-01-30T00:46:48.580Z,98045.47
2023-01-30T00:49:16.438Z,98041.56
2023-01-30T00:51:44.490Z,98042.66
2023-01-30T00:54:11.975Z,98029.22
2023-01-30T00:56:39.595Z,98036.09
2023-01-30T00:59:06.891Z,98021.69
2023-01-30T01:01:34.640Z,98031.63
2023-01-30T01:04:02.051Z,98016.31
2023-01-30T01:06:30.455Z,98016.41
2023-01-30T01:08:57.836Z,98007.25
2023-01-30T01:11:25.665Z,97995.47
2023-01-30T01:13:56.534Z,97997.09
2023-01-30T01:16:26.825Z,98003.91
2023-01-30T01:18:54.929Z,97976.22
2023-01-30T01:21:23.423Z,97979.53
2023-01-30T01:23:53.684Z,97979.69
2023-01-30T01:26:22.040Z,97983.19
2023-01-30T01:28:49.521Z,97976.44
2023-01-30T01:31:17.863Z,97956.84
2023-01-30T01:33:45.350Z,97956.06
2023-01-30T01:36:20.058Z,97974.00
2023-01-30T01:38:58.305Z,97958.69
2023-01-30T01:41:25.912Z,97965.31
2023-01-30T01:44:11.325Z,97950.94
2023-01-30T01:47:00.148Z,97938.03
2023-01-30T01:49:34.022Z,97937.06
2023-01-30T01:52:13.351Z,97914.00
2023-01-30T01:54:59.797Z,97892.06
2023-01-30T01:57:39.003Z,97889.47
2023-01-30T02:00:15.543Z,97875.06
2023-01-30T02:03:14.946Z,97853.78
2023-01-30T02:05:48.644Z,97859.72
2023-01-30T02:08:29.389Z,97863.25
2023-01-30T02:11:10.202Z,97858.91
2023-01-30T02:13:38.629Z,97848.75
2023-01-30T02:16:08.379Z,97852.19
2023-01-30T02:18:41.853Z,97868.03
2023-01-30T02:21:40.336Z,97849.50
2023-01-30T02:24:51.859Z,97836.56
2023-01-30T02:27:45.374Z,97848.44
2023-01-30T02:30:21.661Z,97850.81
2023-01-30T02:33:17.922Z,97817.78
2023-01-30T02:36:21.433Z,97819.47
2023-01-30T02:39:34.928Z,97830.44
2023-01-30T02:42:25.647Z,97805.84
2023-01-30T02:45:29.383Z,97809.94
2023-01-30T02:48:05.438Z,97786.19
2023-01-30T02:50:40.950Z,97813.09
2023-01-30T02:53:08.981Z,97790.75
2023-01-30T02:55:36.516Z,97789.97
2023-01-30T02:58:05.057Z,97801.94
2023-01-30T03:01:03.929Z,97794.03
2023-01-30T03:04:01.661Z,97797.53
2023-01-30T03:07:07.781Z,97789.00
2023-01-30T03:09:54.502Z,97777.75
2023-01-30T03:12:46.494Z,97769.25
2023-01-30T03:15:31.199Z,97765.78
2023-01-30T03:17:59.750Z,97741.63
2023-01-30T03:20:27.365Z,97784.28
2023-01-30T03:22:55.670Z,97765.47
2023-01-30T03:25:27.064Z,97765.34
2023-01-30T03:27:56.787Z,97756.13
2023-01-30T03:30:26.716Z,97771.72
2023-01-30T03:32:54.258Z,97747.56
2023-01-30T03:35:21.939Z,97757.16
2023-01-30T03:37:49.809Z,97746.19
2023-01-30T03:40:18.019Z,97739.56
2023-01-30T03:42:45.909Z,97745.38
2023-01-30T03:45:13.576Z,97742.03
2023-01-30T03:47:40.885Z,97738.38
2023-01-30T03:50:09.701Z,97748.56
2023-01-30T03:52:37.946Z,97730.78
2023-01-30T03:55:06.172Z,97726.31
2023-01-30T03:57:33.525Z,97727.75
2023-01-30T04:00:01.217Z,97729.66
2023-01-30T04:02:28.568Z,97723.53
2023-01-30T04:04:56.347Z,97698.66
2023-01-30T04:07:23.926Z,97709.88
2023-01-30T04:09:51.559Z,97696.00
2023-01-30T04:12:18.984Z,97722.53
2023-01-30T04:14:46.645Z,97703.97
2023-01-30T04:17:14.047Z,97677.56
2023-01-30T04:19:41.660Z,97678.34
2023-01-30T04:22:08.942Z,97679.19
2023-01-30T04:24:36.465Z,97658.59
2023-01-30T04:27:03.922Z,97666.38
2023-01-30T04:29:31.691Z,97672.44
2023-01-30T04:31:58.995Z,97664.22
2023-01-30T04:34:26.537Z,97673.56
2023-01-30T04:36:53.866Z,97654.81
2023-01-30T04:39:22.191Z,97646.78
2023-01-30T04:41:49.618Z,97651.56
2023-01-30T04:44:17.286Z,97642.31
2023-01-30T04:46:44.702Z,97654.13
2023-01-30T04:49:12.787Z,97705.34
2023-01-30T04:51:40.086Z,97659.81
2023-01-30T04:54:07.801Z,97659.34
2023-01-30T04:56:35.147Z,97661.53
2023-01-30T04:59:02.859Z,97636.19
2023-01-30T05:01:42.295Z,97633.53
2023-01-30T05:04:10.283Z,97643.78
2023-01-30T05:06:37.728Z,97636.78
2023-01-30T05:09:06.109Z,97619.78
2023-01-30T05:11:34.078Z,97609.34
2023-01-30T05:14:02.219Z,97608.47
2023-01-30T05:16:29.908Z,97613.00
2023-01-30T05:18:57.695Z,97606.28
2023-01-30T05:21:30.765Z,97617.88
2023-01-30T05:23:58.576Z,97617.97
2023-01-30T05:26:27.111Z,97609.81
2023-01-30T05:28:57.219Z,97581.91
2023-01-30T05:31:25.631Z,97597.38
2023-01-30T05:33:53.616Z,97588.13
2023-01-30T05:36:23.566Z,97604.38
2023-01-30T05:38:51.325Z,97575.34
2023-01-30T05:41:19.043Z,97602.16
2023-01-30T05:43:51.102Z,97599.81
2023-01-30T05:46:18.885Z,97593.78
2023-01-30T05:48:46.811Z,97577.19
2023-01-30T05:51:32.273Z,97552.50
2023-01-30T05:54:00.443Z,97552.13
2023-01-30T05:56:27.829Z,97557.47
2023-01-30T05:58:57.005Z,97536.19
2023-01-30T06:01:24.648Z,97540.97
2023-01-30T06:03:53.253Z,97514.78
2023-01-30T06:06:21.838Z,97515.22
2023-01-30T06:08:54.566Z,97525.13
2023-01-30T06:11:22.978Z,97522.44
2023-01-30T06:13:50.741Z,97502.56
2023-01-30T06:16:19.537Z,97516.09
2023-01-30T06:18:47.578Z,97518.78
2023-01-30T06:21:16.441Z,97528.34
2023-01-30T06:23:44.330Z,97518.59
2023-01-30T06:26:11.757Z,97513.41
2023-01-30T06:28:39.375Z,97512.34
2023-01-30T06:31:08.332Z,97501.63
2023-01-30T06:33:36.424Z,97520.44
2023-01-30T06:36:04.072Z,97515.91
2023-01-30T06:38:31.681Z,97499.72
2023-01-30T06:40:59.211Z,97496.00
2023-01-30T06:43:26.780Z,97486.06
2023-01-30T06:45:54.095Z,97479.88
2023-01-30T06:48:21.718Z,97500.19
2023-01-30T06:50:49.051Z,97492.50
2023-01-30T06:53:16.696Z,97477.84
2023-01-30T06:55:43.999Z,97500.06
2023-01-30T06:58:15.020Z,97488.06
2023-01-30T07:00:43.375Z,97486.28
2023-01-30T07:03:17.189Z,97495.59
2023-01-30T07:05:47.572Z,97487.25
2023-01-30T07:08:16.655Z,97494.50
2023-01-30T07:10:45.497Z,97486.63
2023-01-30T07:13:13.768Z,97463.25
2023-01-30T07:15:41.114Z,97461.25
2023-01-30T07:18:08.899Z,97452.38
2023-01-30T07:20:36.259Z,97486.47
2023-01-30T07:23:04.324Z,97464.78
2023-01-30T07:25:31.673Z,97449.22
2023-01-30T07:28:03.309Z,97433.91
2023-01-30T07:30:36.140Z,97428.75
2023-01-30T07:33:06.629Z,97430.69
2023-01-30T07:35:36.890Z,97462.94
2023-01-30T07:38:05.756Z,97439.09
2023-01-30T07:40:33.519Z,97446.53
2023-01-30T07:43:12.117Z,97476.53
2023-01-30T07:45:49.067Z,97437.16
2023-01-30T07:48:19.644Z,97478.75
2023-01-30T07:50:47.452Z,97446.81
2023-01-30T07:53:18.910Z,97418.34
2023-01-30T07:55:46.448Z,97436.25
2023-01-30T07:58:17.992Z,97419.78
2023-01-30T08:00:45.771Z,97418.34
2023-01-30T08:03:15.902Z,97430.50
2023-01-30T08:05:47.054Z,97403.72
2023-01-30T08:08:15.156Z,97398.03
2023-01-30T08:10:42.925Z,97470.31
2023-01-30T08:13:10.821Z,97467.34
2023-01-30T08:15:38.242Z,97417.97
2023-01-30T08:18:07.489Z,97411.28
2023-01-30T08:20:35.053Z,97407.47
2023-01-30T08:23:03.350Z,97392.19
2023-01-30T08:25:31.158Z,97429.38
2023-01-30T08:28:00.633Z,97370.28
2023-01-30T08:30:30.683Z,97357.22
2023-01-30T08:32:59.193Z,97392.81
2023-01-30T08:35:26.991Z,97381.53
2023-01-30T08:37:54.837Z,97380.78
2023-01-30T08:40:22.171Z,97374.50
2023-01-30T08:42:49.797Z,97444.00
2023-01-30T08:45:17.172Z,97376.47
2023-01-30T08:47:44.736Z,97395.84
2023-01-30T08:50:12.366Z,97365.91
2023-01-30T08:52:39.989Z,97383.28
2023-01-30T08:55:08.042Z,97393.16
2023-01-30T08:57:36.603Z,97395.50
2023-01-30T09:00:05.804Z,97373.91
2023-01-30T09:02:35.263Z,97374.44
2023-01-30T09:05:04.163Z,97399.59
2023-01-30T09:07:33.628Z,97379.06
2023-01-30T09:10:01.929Z,97391.47
2023-01-30T09:12:29.513Z,97360.47
2023-01-30T09:14:58.588Z,97359.09
2023-01-30T09:17:26.567Z,97373.31
2023-01-30T09:19:54.200Z,97364.19
2023-01-30T09:22:21.912Z,97333.81
2023-01-30T09:24:49.251Z,97352.75
2023-01-30T09:27:16.804Z,97350.66
2023-01-30T09:29:45.410Z,97338.94
2023-01-30T09:32:13.027Z,97344.09
2023-01-30T09:34:40.528Z,97338.03
2023-01-30T09:37:08.396Z,97320.84
2023-01-30T09:39:35.748Z,97359.44
2023-01-30T09:42:07.152Z,97327.00
2023-01-30T09:45:21.584Z,97308.94
2023-01-30T09:48:18.473Z,97309.53
2023-01-30T09:51:02.607Z,97300.00
2023-01-30T09:53:36.304Z,97306.25
2023-01-30T09:56:06.387Z,97295.34
2023-01-30T09:59:03.347Z,97297.44
2023-01-30T10:02:09.315Z,97295.19
2023-01-30T10:05:00.112Z,97259.00
2023-01-30T10:07:34.098Z,97273.50
2023-01-30T10:10:28.623Z,97265.28
2023-01-30T10:13:13.673Z,97246.94
2023-01-30T10:16:09.832Z,97255.59
2023-01-30T10:19:20.561Z,97263.28
2023-01-30T10:22:41.229Z,97264.47
2023-01-30T10:25:38.779Z,97253.16
2023-01-30T10:28:37.606Z,97252.16
2023-01-30T10:31:15.734Z,97254.75
2023-01-30T10:34:06.580Z,97244.03
2023-01-30T10:36:49.740Z,97217.84
2023-01-30T10:39:55.540Z,97226.22
2023-01-30T10:42:44.009Z,97184.94
2023-01-30T10:45:17.535Z,97192.47
2023-01-30T10:48:31.372Z,97199.19
2023-01-30T10:51:33.649Z,97216.31
2023-01-30T10:54:26.928Z,97193.00
2023-01-30T10:57:23.923Z,97205.50
2023-01-30T11:00:11.295Z,97200.06
2023-01-30T11:03:05.035Z,97173.31
2023-01-30T11:05:47.531Z,97177.13
2023-01-30T11:08:28.918Z,97179.94
2023-01-30T11:10:57.962Z,97199.09
2023-01-30T11:13:34.498Z,97202.84
2023-01-30T11:16:08.049Z,97170.53
2023-01-30T11:19:18.698Z,97148.22
2023-01-30T11:21:44.557Z,97147.47
2023-01-30T11:24:31.009Z,97169.50
2023-01-30T11:27:29.441Z,97156.34
2023-01-30T11:30:11.165Z,97155.03
2023-01-30T11:32:38.671Z,97136.59
2023-01-30T11:35:09.342Z,97130.34
2023-01-30T11:37:41.359Z,97134.13
2023-01-30T11:40:31.277Z,97117.16
2023-01-30T11:43:14.260Z,97120.84
2023-01-30T11:45:50.514Z,97109.69
2023-01-30T11:48:32.955Z,97101.66
2023-01-30T11:51:16.956Z,97132.41
2023-01-30T11:54:01.225Z,97098.34
2023-01-30T11:56:54.528Z,97091.94
2023-01-30T11:59:37.157Z,97079.00
2023-01-30T12:02:29.968Z,97092.66
2023-01-30T12:05:05.463Z,97055.47
2023-01-30T12:07:37.611Z,97077.31
2023-01-30T12:10:31.652Z,97094.84
2023-01-30T12:13:20.155Z,97083.44
2023-01-30T12:15:58.265Z,97095.06
2023-01-30T12:18:50.941Z,97083.06
2023-01-30T12:21:36.329Z,97072.16
2023-01-30T12:24:25.909Z,97073.94
2023-01-30T12:27:10.039Z,97056.00
2023-01-30T12:30:11.320Z,97075.31
2023-01-30T12:32:38.975Z,97072.94
2023-01-30T12:35:18.562Z,97061.06
2023-01-30T12:38:05.597Z,97050.34
2023-01-30T12:41:16.572Z,97077.81
2023-01-30T12:48:22.862Z,97061.16
2023-01-30T12:51:21.248Z,97042.53
2023-01-30T12:54:21.307Z,97044.63
2023-01-30T12:57:10.413Z,97043.00
2023-01-30T12:59:47.071Z,97048.16
2023-01-30T13:03:12.917Z,97037.50
2023-01-30T13:05:54.447Z,97043.63
2023-01-30T13:08:43.047Z,97048.91
2023-01-30T13:11:42.046Z,97056.16
2023-01-30T13:14:44.734Z,97031.38
2023-01-30T13:17:49.788Z,97045.09
2023-01-30T13:20:53.220Z,97033.53
2023-01-30T13:23:54.433Z,97011.25
2023-01-30T13:26:31.369Z,97026.75
2023-01-30T13:29:29.782Z,97007.84
2023-01-30T13:32:02.629Z,97023.28
2023-01-30T13:34:45.762Z,97022.13
2023-01-30T13:37:20.764Z,97025.16
2023-01-30T13:40:13.643Z,97033.50
2023-01-30T13:43:02.195Z,97018.38
2023-01-30T13:45:36.778Z,96994.72
2023-01-30T13:48:30.922Z,96990.94
2023-01-30T13:51:52.994Z,97033.66
2023-01-30T13:54:50.680Z,96992.94
2023-01-30T13:57:40.307Z,96993.78
2023-01-30T14:00:26.896Z,96976.88
2023-01-30T14:03:06.729Z,97002.63
2023-01-30T14:05:52.795Z,97006.88
2023-01-30T14:08:38.171Z,96978.13
2023-01-30T14:11:37.303Z,96990.63
2023-01-30T14:14:32.363Z,96984.16
2023-01-30T14:17:16.721Z,96990.25
2023-01-30T14:20:00.828Z,97007.94
2023-01-30T14:22:54.593Z,96999.53
2023-01-30T14:25:32.945Z,96988.91
2023-01-30T14:28:00.419Z,96999.53
2023-01-30T14:30:56.069Z,97005.56
2023-01-30T14:33:23.787Z,96995.56
2023-01-30T14:36:03.268Z,96984.84
2023-01-30T14:38:36.088Z,96995.56
2023-01-30T14:41:03.377Z,96998.72
2023-01-30T14:43:43.035Z,97008.19
2023-01-30T14:46:19.643Z,97012.25
2023-01-30T14:49:19.530Z,97011.47
2023-01-30T14:51:49.806Z,97005.31
2023-01-30T14:54:17.319Z,97003.31
2023-01-30T14:56:57.205Z,97013.09
2023-01-30T14:59:54.082Z,97025.25
2023-01-30T15:02:49.491Z,97011.50
2023-01-30T15:05:30.795Z,97008.09
2023-01-30T15:08:12.960Z,97014.03
2023-01-30T15:10:49.418Z,97021.31
2023-01-30T15:13:58.964Z,97017.16
2023-01-30T15:17:03.051Z,97027.03
2023-01-30T15:20:02.698Z,97030.31
2023-01-30T15:23:18.569Z,97022.88
2023-01-30T15:25:57.346Z,97039.34
2023-01-30T15:29:06.509Z,97046.94
2023-01-30T15:31:33.982Z,97037.84
2023-01-30T15:34:01.717Z,97050.19
2023-01-30T15:36:35.981Z,97050.09
2023-01-30T15:39:40.358Z,97047.47
2023-01-30T15:42:15.314Z,97042.69
2023-01-30T15:45:33.331Z,97051.38
2023-01-30T15:48:31.556Z,97055.69
2023-01-30T15:51:01.461Z,97056.91
2023-01-30T15:53:41.363Z,97054.94
2023-01-30T15:56:17.781Z,97061.09
2023-01-30T15:58:45.995Z,97059.09
2023-01-30T16:01:21.365Z,97062.69
2023-01-30T16:03:50.281Z,97066.91
2023-01-30T16:06:23.853Z,97077.22
2023-01-30T16:09:00.807Z,97059.81
2023-01-30T16:11:42.772Z,97069.75
2023-01-30T16:14:22.208Z,97068.94
2023-01-30T16:17:10.503Z,97104.16
2023-01-30T16:19:39.109Z,97074.59
2023-01-30T16:22:19.152Z,97086.03
2023-01-30T16:24:53.226Z,97079.00
2023-01-30T16:27:32.253Z,97093.72
2023-01-30T16:30:08.686Z,97078.25
2023-01-30T16:32:37.521Z,97098.00
2023-01-30T16:35:27.099Z,97071.88
2023-01-30T16:37:59.152Z,97080.00
2023-01-30T16:40:45.553Z,97087.31
2023-01-30T16:43:25.003Z,97104.69
2023-01-30T16:45:55.245Z,97097.03
2023-01-30T16:48:43.974Z,97114.13
2023-01-30T16:51:21.764Z,97106.41
2023-01-30T16:54:04.860Z,97107.69
2023-01-30T16:56:34.975Z,97092.91
2023-01-30T16:59:03.656Z,97101.06
2023-01-30T17:01:41.466Z,97108.97
2023-01-30T17:04:22.958Z,97102.72
2023-01-30T17:07:01.699Z,97104.00
2023-01-30T17:09:42.731Z,97109.53
2023-01-30T17:12:31.240Z,97094.97
2023-01-30T17:15:13.893Z,97091.19
2023-01-30T17:17:42.575Z,97090.66
2023-01-30T17:20:13.180Z,97095.25
2023-01-30T17:22:44.604Z,97102.72
2023-01-30T17:25:33.005Z,97089.09
2023-01-30T17:28:00.396Z,97093.50
2023-01-30T17:30:28.021Z,97097.81
2023-01-30T17:32:55.329Z,97120.69
2023-01-30T17:35:23.048Z,97098.28
2023-01-30T17:37:59.750Z,97107.13
2023-01-30T17:40:36.872Z,97107.13
2023-01-30T17:43:05.580Z,97106.69
2023-01-30T17:45:33.747Z,97099.72
2023-01-30T17:48:01.803Z,97105.78
2023-01-30T17:50:29.505Z,97090.41
2023-01-30T17:52:56.883Z,97091.75
2023-01-30T17:55:25.123Z,97098.53
2023-01-30T17:57:53.157Z,97084.75
2023-01-30T18:00:22.902Z,97096.59
2023-01-30T18:02:50.447Z,97081.09
2023-01-30T18:05:18.231Z,97084.59
2023-01-30T18:07:45.708Z,97079.66
2023-01-30T18:10:20.460Z,97081.34
2023-01-30T18:12:48.013Z,97081.28
2023-01-30T18:15:16.658Z,97062.09
2023-01-30T18:17:48.540Z,97063.13
2023-01-30T18:20:20.275Z,97072.25
2023-01-30T18:22:48.091Z,97074.09
2023-01-30T18:25:17.649Z,97053.78
2023-01-30T18:27:47.410Z,97063.25
2023-01-30T18:30:17.686Z,97065.19
2023-01-30T18:32:53.562Z,97064.19
2023-01-30T18:35:23.200Z,97043.50
2023-01-30T18:37:51.109Z,97066.63
2023-01-30T18:40:20.876Z,97069.84
2023-01-30T18:42:48.706Z,97073.16
2023-01-30T18:45:16.582Z,97055.06
2023-01-30T18:47:44.008Z,97063.53
2023-01-30T18:50:12.277Z,97058.56
2023-01-30T18:52:39.697Z,97058.31
2023-01-30T18:55:07.903Z,97062.72
2023-01-30T18:57:35.230Z,97071.69
2023-01-30T19:00:03.348Z,97052.41
2023-01-30T19:02:30.910Z,97050.00
2023-01-30T19:04:58.572Z,97052.31
2023-01-30T19:07:25.881Z,97055.75
2023-01-30T19:09:53.666Z,97062.31
2023-01-30T19:12:41.382Z,97057.06
2023-01-30T19:15:10.249Z,97061.56
2023-01-30T19:17:37.543Z,97057.25
2023-01-30T19:20:10.863Z,97060.06
2023-01-30T19:22:39.270Z,97073.72
2023-01-30T19:25:07.842Z,97064.56
2023-01-30T19:27:38.508Z,97068.47
2023-01-30T19:30:07.424Z,97059.72
2023-01-30T19:32:35.039Z,97077.78
2023-01-30T19:35:02.965Z,97084.84
2023-01-30T19:37:30.407Z,97084.09
2023-01-30T19:39:58.039Z,97089.25
2023-01-30T19:42:25.444Z,97075.63
2023-01-30T19:44:53.255Z,97083.44
2023-01-30T19:47:22.130Z,97101.56
2023-01-30T19:49:49.914Z,97092.75
2023-01-30T19:52:17.190Z,97095.00
2023-01-30T19:54:47.039Z,97111.28
2023-01-30T19:57:14.406Z,97100.16
2023-01-30T19:59:42.839Z,97098.81
2023-01-30T20:02:13.305Z,97093.84
2023-01-30T20:04:41.058Z,97097.31
2023-01-30T20:07:08.417Z,97091.00
2023-01-30T20:09:36.139Z,97091.00
2023-01-30T20:12:03.840Z,97082.44
2023-01-30T20:14:31.549Z,97090.16
2023-01-30T20:16:58.895Z,97103.47
2023-01-30T20:19:27.289Z,97090.41
2023-01-30T20:21:55.184Z,97119.44
2023-01-30T20:24:23.002Z,97120.78
2023-01-30T20:26:50.513Z,97110.13
2023-01-30T20:29:18.256Z,97099.91
2023-01-30T20:31:45.689Z,97107.91
2023-01-30T20:34:15.265Z,97113.44
2023-01-30T20:36:42.805Z,97136.59
2023-01-30T20:39:10.639Z,97143.91
2023-01-30T20:41:38.766Z,97146.63
2023-01-30T20:44:10.531Z,97134.09
2023-01-30T20:46:44.195Z,97128.59
2023-01-30T20:49:29.929Z,97134.72
2023-01-30T20:51:57.195Z,97133.06
2023-01-30T20:54:24.778Z,97125.25
2023-01-30T20:56:53.990Z,97137.31
2023-01-30T20:59:24.490Z,97129.56
2023-01-30T21:01:53.275Z,97140.22
2023-01-30T21:04:24.574Z,97143.19
2023-01-30T21:06:52.240Z,97148.44
2023-01-30T21:09:23.146Z,97141.88
2023-01-30T21:11:53.113Z,97153.84
2023-01-30T21:14:21.584Z,97167.06
2023-01-30T21:16:49.448Z,97163.06
2023-01-30T21:19:18.239Z,97158.56
2023-01-30T21:21:53.498Z,97158.50
2023-01-30T21:24:28.567Z,97166.47
2023-01-30T21:26:56.967Z,97167.22
2023-01-30T21:29:28.417Z,97169.63
2023-01-30T21:31:57.818Z,97174.13
2023-01-30T21:34:25.864Z,97179.81
2023-01-30T21:37:11.798Z,97185.63
2023-01-30T21:39:58.206Z,97188.94
2023-01-30T21:42:44.055Z,97188.84
2023-01-30T21:45:11.712Z,97188.41
2023-01-30T21:47:39.028Z,97187.44
2023-01-30T21:50:07.588Z,97195.53
2023-01-30T21:52:35.142Z,97200.59
2023-01-30T21:55:02.904Z,97205.59
2023-01-30T21:57:30.338Z,97201.47
2023-01-30T21:59:58.066Z,97205.09
2023-01-30T22:02:25.516Z,97211.34
2023-01-30T22:04:53.225Z,97225.00
2023-01-30T22:07:20.596Z,97215.19
2023-01-30T22:09:48.993Z,97226.41
2023-01-30T22:12:16.495Z,97213.47
2023-01-30T22:14:44.074Z,97228.94
2023-01-30T22:17:11.468Z,97234.84
2023-01-30T22:19:39.703Z,97231.66
2023-01-30T22:22:07.143Z,97242.81
2023-01-30T22:24:34.817Z,97228.13
2023-01-30T22:27:02.203Z,97227.38
2023-01-30T22:29:29.903Z,97241.59
2023-01-30T22:31:57.334Z,97239.09
2023-01-30T22:34:25.053Z,97253.81
2023-01-30T22:36:53.059Z,97238.59
2023-01-30T22:39:20.765Z,97230.38
2023-01-30T22:41:48.142Z,97250.91
2023-01-30T22:44:15.737Z,97254.09
2023-01-30T22:46:43.061Z,97264.22
2023-01-30T22:49:10.959Z,97267.34
2023-01-30T22:51:41.211Z,97289.97
2023-01-30T22:54:16.073Z,97275.63
2023-01-30T22:56:47.630Z,97261.53
2023-01-30T22:59:15.343Z,97263.78
2023-01-30T23:01:46.864Z,97273.97
2023-01-30T23:04:19.278Z,97277.94
2023-01-30T23:06:47.753Z,97284.59
2023-01-30T23:09:20.040Z,97269.22
2023-01-30T23:12:10.807Z,97273.34
2023-01-30T23:14:39.292Z,97272.25
2023-01-30T23:17:26.782Z,97290.63
2023-01-30T23:19:57.767Z,97296.38
2023-01-30T23:22:25.223Z,97294.72
2023-01-30T23:24:52.828Z,97304.03
2023-01-30T23:27:21.183Z,97300.03
2023-01-30T23:29:48.925Z,97300.41
2023-01-30T23:32:19.942Z,97298.50
2023-01-30T23:34:48.273Z,97303.19
2023-01-30T23:37:16.650Z,97296.38
2023-01-30T23:39:44.985Z,97299.41
2023-01-30T23:42:12.244Z,97299.66
2023-01-30T23:44:40.128Z,97291.69
2023-01-30T23:47:07.604Z,97275.91
2023-01-30T23:49:35.400Z,97289.03
2023-01-30T23:52:02.709Z,97289.56
2023-01-30T23:54:30.337Z,97286.16
2023-01-30T23:56:57.664Z,97285.47
2023-01-30T23:59:25.235Z,97280.78
